KIJX/IJX METAR and TAF weather

Enter ICAO airport designator
Station Type Date Time Source
KIJX METAR 2021/07/30 06:55 UTC NOAA

KIJX 300655Z AUTO 00000KT 24/24 A3002 RMK AO2 T02420242 PWINO


Station Type Date Time Source
KIJX Decoded METAR 2021/07/30 06:55 UTC NOAA

Jacksonville, Jacksonville Municipal Airport, IL, United States (KIJX) 39-46-27N 090-14-19W
Jul 30, 2021 - 02:55 AM EDT / 2021.07.30 0655 UTC
Wind: Calm:0
Temperature: 75.6 F (24.2 C)
Dew Point: 75.6 F (24.2 C)
Relative Humidity: 100%
Pressure (altimeter): 30.02 in. Hg (1016 hPa)
ob: KIJX 300655Z AUTO 00000KT 24/24 A3002 RMK AO2 T02420242 PWINO
cycle: 7

Station Type Date Time Source
KIJX TAF UTC NOAA

Error!

Example: see airport list